createdAt,value
2022-11-10T00:00:15.468Z,11.80
2022-11-10T00:03:07.808Z,11.70
2022-11-10T00:05:59.067Z,11.80
2022-11-10T00:08:45.618Z,11.80
2022-11-10T00:11:33.062Z,11.80
2022-11-10T00:14:44.197Z,11.80
2022-11-10T00:17:37.750Z,11.80
2022-11-10T00:20:24.614Z,11.60
2022-11-10T00:23:16.729Z,11.60
2022-11-10T00:26:11.458Z,11.50
2022-11-10T00:29:01.918Z,11.50
2022-11-10T00:31:53.545Z,11.50
2022-11-10T00:34:43.055Z,11.50
2022-11-10T00:37:33.443Z,11.40
2022-11-10T00:40:27.290Z,11.40
2022-11-10T00:43:14.638Z,11.40
2022-11-10T00:46:05.521Z,11.40
2022-11-10T00:48:56.498Z,11.40
2022-11-10T00:51:45.206Z,11.40
2022-11-10T00:54:34.502Z,11.40
2022-11-10T00:57:22.240Z,11.40
2022-11-10T01:00:17.581Z,11.40
2022-11-10T01:03:06.836Z,11.40
2022-11-10T01:05:56.204Z,11.40
2022-11-10T01:08:46.634Z,11.40
2022-11-10T01:11:33.909Z,11.40
2022-11-10T01:14:22.919Z,11.40
2022-11-10T01:17:14.012Z,11.40
2022-11-10T01:20:06.496Z,11.40
2022-11-10T01:22:56.604Z,11.40
2022-11-10T01:25:47.209Z,11.40
2022-11-10T01:28:39.524Z,11.40
2022-11-10T01:31:30.348Z,11.50
2022-11-10T01:34:23.515Z,11.50
2022-11-10T01:37:16.938Z,11.60
2022-11-10T01:40:07.033Z,11.70
2022-11-10T01:42:57.526Z,11.70
2022-11-10T01:46:06.257Z,11.60
2022-11-10T01:49:06.928Z,11.60
2022-11-10T01:52:13.590Z,11.60
2022-11-10T01:55:03.093Z,11.50
2022-11-10T01:57:50.922Z,11.50
2022-11-10T02:00:41.535Z,11.50
2022-11-10T02:03:39.689Z,11.40
2022-11-10T02:06:33.804Z,11.50
2022-11-10T02:09:23.323Z,11.50
2022-11-10T02:12:16.911Z,11.50
2022-11-10T02:15:16.334Z,11.50
2022-11-10T02:18:06.273Z,11.50
2022-11-10T02:20:56.358Z,11.50
2022-11-10T02:23:55.657Z,11.50
2022-11-10T02:27:09.020Z,11.60
2022-11-10T02:29:57.373Z,11.50
2022-11-10T02:32:48.382Z,11.50
2022-11-10T02:35:37.123Z,11.50
2022-11-10T02:38:26.001Z,11.50
2022-11-10T02:44:20.816Z,11.50
2022-11-10T02:47:13.435Z,11.50
2022-11-10T02:50:03.302Z,11.50
2022-11-10T02:52:54.051Z,11.50
2022-11-10T02:55:44.666Z,11.50
2022-11-10T02:58:34.454Z,11.50
2022-11-10T03:01:25.054Z,11.50
2022-11-10T03:04:16.587Z,11.50
2022-11-10T03:07:08.004Z,11.50
2022-11-10T03:09:58.407Z,11.50
2022-11-10T03:12:46.132Z,11.40
2022-11-10T03:15:38.231Z,11.40
2022-11-10T03:18:28.209Z,11.40
2022-11-10T03:21:20.167Z,11.40
2022-11-10T03:24:09.610Z,11.40
2022-11-10T03:26:56.845Z,11.30
2022-11-10T03:29:46.697Z,11.30
2022-11-10T03:32:40.057Z,11.30
2022-11-10T03:35:28.170Z,11.30
2022-11-10T03:38:19.959Z,11.30
2022-11-10T03:41:19.847Z,11.30
2022-11-10T03:44:07.564Z,11.30
2022-11-10T03:46:55.891Z,11.30
2022-11-10T03:49:46.637Z,11.30
2022-11-10T03:52:39.514Z,11.30
2022-11-10T03:55:28.865Z,11.30
2022-11-10T03:58:23.799Z,11.30
2022-11-10T04:01:11.681Z,11.30
2022-11-10T04:03:59.851Z,11.30
2022-11-10T04:07:11.353Z,11.20
2022-11-10T04:10:01.166Z,11.20
2022-11-10T04:13:09.326Z,11.20
2022-11-10T04:15:59.947Z,11.20
2022-11-10T04:18:51.162Z,11.20
2022-11-10T04:21:42.794Z,11.20
2022-11-10T04:24:36.264Z,11.10
2022-11-10T04:27:22.912Z,11.00
2022-11-10T04:30:13.988Z,11.00
2022-11-10T04:33:03.525Z,10.90
2022-11-10T04:35:58.599Z,10.70
2022-11-10T04:38:48.671Z,10.60
2022-11-10T04:41:40.336Z,10.50
2022-11-10T04:44:29.084Z,10.40
2022-11-10T04:47:18.410Z,10.30
2022-11-10T04:50:06.417Z,10.30
2022-11-10T04:52:54.218Z,10.20
2022-11-10T04:55:44.967Z,10.20
2022-11-10T04:58:34.583Z,10.30
2022-11-10T05:01:26.605Z,10.20
2022-11-10T05:04:16.778Z,10.20
2022-11-10T05:07:05.603Z,10.10
2022-11-10T05:09:57.592Z,10.10
2022-11-10T05:12:49.296Z,10.10
2022-11-10T05:15:35.879Z,10.10
2022-11-10T05:18:27.754Z,10.00
2022-11-10T05:21:17.646Z,10.00
2022-11-10T05:24:09.034Z,9.90
2022-11-10T05:27:02.726Z,9.90
2022-11-10T05:29:50.346Z,9.90
2022-11-10T05:32:41.780Z,9.90
2022-11-10T05:35:32.009Z,9.90
2022-11-10T05:38:18.942Z,9.90
2022-11-10T05:41:09.572Z,9.90
2022-11-10T05:43:59.316Z,9.90
2022-11-10T05:47:09.643Z,9.90
2022-11-10T05:49:59.515Z,9.80
2022-11-10T05:52:52.777Z,9.80
2022-11-10T05:55:43.237Z,9.80
2022-11-10T05:58:31.473Z,9.80
2022-11-10T06:01:24.601Z,9.80
2022-11-10T06:04:16.683Z,9.80
2022-11-10T06:07:04.422Z,9.80
2022-11-10T06:09:55.978Z,9.90
2022-11-10T06:12:47.040Z,9.90
2022-11-10T06:15:35.479Z,9.80
2022-11-10T06:18:24.241Z,9.90
2022-11-10T06:21:13.128Z,9.90
2022-11-10T06:24:03.428Z,9.90
2022-11-10T06:26:50.559Z,9.90
2022-11-10T06:29:42.712Z,9.90
2022-11-10T06:32:31.121Z,10.00
2022-11-10T06:35:20.192Z,10.00
2022-11-10T06:38:13.280Z,10.00
2022-11-10T06:41:25.425Z,10.10
2022-11-10T06:44:18.947Z,10.10
2022-11-10T06:47:08.787Z,10.10
2022-11-10T06:49:59.147Z,10.20
2022-11-10T06:52:58.368Z,10.20
2022-11-10T06:55:49.183Z,10.30
2022-11-10T06:58:38.809Z,10.30
2022-11-10T07:01:31.703Z,10.30
2022-11-10T07:04:20.997Z,10.30
2022-11-10T07:07:12.670Z,10.30
2022-11-10T07:10:06.940Z,10.40
2022-11-10T07:13:00.993Z,10.40
2022-11-10T07:15:50.171Z,10.40
2022-11-10T07:18:39.140Z,10.50
2022-11-10T07:21:28.644Z,10.50
2022-11-10T07:24:21.028Z,10.50
2022-11-10T07:27:12.176Z,10.70
2022-11-10T07:30:02.914Z,10.70
2022-11-10T07:32:59.341Z,10.70
2022-11-10T07:35:58.175Z,10.80
2022-11-10T07:38:51.001Z,10.90
2022-11-10T07:41:43.399Z,11.00
2022-11-10T07:44:32.717Z,11.00
2022-11-10T07:47:21.881Z,11.00
2022-11-10T07:50:11.007Z,11.00
2022-11-10T07:53:19.160Z,11.00
2022-11-10T07:56:06.659Z,11.10
2022-11-10T07:58:57.523Z,11.10
2022-11-10T08:01:47.875Z,11.10
2022-11-10T08:04:37.107Z,11.20
2022-11-10T08:07:26.491Z,11.20
2022-11-10T08:10:15.519Z,11.30
2022-11-10T08:13:11.274Z,11.30
2022-11-10T08:15:59.604Z,11.30
2022-11-10T08:18:49.786Z,11.40
2022-11-10T08:21:43.073Z,11.40
2022-11-10T08:24:32.583Z,11.60
2022-11-10T08:27:20.334Z,11.60
2022-11-10T08:30:09.177Z,11.60
2022-11-10T08:33:03.793Z,11.70
2022-11-10T08:35:53.617Z,11.70
2022-11-10T08:38:42.491Z,11.80
2022-11-10T08:41:28.581Z,11.90
2022-11-10T08:44:21.055Z,12.00
2022-11-10T08:47:10.697Z,12.00
2022-11-10T08:50:02.521Z,12.10
2022-11-10T08:52:50.770Z,12.20
2022-11-10T08:55:42.096Z,12.10
2022-11-10T08:58:33.927Z,12.10
2022-11-10T09:01:22.783Z,12.20
2022-11-10T09:04:11.524Z,12.30
2022-11-10T09:07:03.212Z,12.30
2022-11-10T09:10:06.752Z,12.40
2022-11-10T09:13:09.222Z,12.40
2022-11-10T09:16:11.954Z,12.40
2022-11-10T09:19:03.003Z,12.50
2022-11-10T09:21:53.423Z,12.50
2022-11-10T09:24:43.830Z,12.60
2022-11-10T09:27:37.104Z,12.70
2022-11-10T09:30:31.432Z,12.70
2022-11-10T09:33:20.596Z,12.80
2022-11-10T09:36:10.363Z,12.90
2022-11-10T09:39:00.688Z,13.00
2022-11-10T09:41:53.563Z,13.00
2022-11-10T09:44:55.031Z,13.10
2022-11-10T09:47:59.573Z,13.10
2022-11-10T09:51:19.481Z,13.10
2022-11-10T09:54:17.384Z,13.20
2022-11-10T09:57:07.394Z,13.30
2022-11-10T09:59:58.201Z,13.40
2022-11-10T10:03:04.590Z,13.50
2022-11-10T10:06:05.867Z,13.60
2022-11-10T10:09:16.441Z,13.60
2022-11-10T10:12:53.850Z,13.70
2022-11-10T10:16:03.650Z,13.80
2022-11-10T10:19:29.524Z,13.80
2022-11-10T10:22:56.749Z,13.90
2022-11-10T10:25:45.923Z,14.00
2022-11-10T10:28:45.745Z,14.10
2022-11-10T10:31:50.265Z,14.20
2022-11-10T10:34:40.667Z,14.20
2022-11-10T10:37:48.962Z,14.30
2022-11-10T10:40:38.271Z,14.30
2022-11-10T10:43:30.674Z,14.40
2022-11-10T10:46:24.909Z,14.30
2022-11-10T10:49:31.150Z,14.30
2022-11-10T10:52:34.767Z,14.40
2022-11-10T10:55:30.046Z,14.50
2022-11-10T10:58:33.838Z,14.50
2022-11-10T11:01:41.535Z,14.60
2022-11-10T11:04:37.687Z,14.70
2022-11-10T11:07:28.551Z,14.70
2022-11-10T11:10:26.034Z,14.70
2022-11-10T11:13:18.297Z,14.70
2022-11-10T11:16:10.590Z,14.70
2022-11-10T11:19:00.999Z,14.80
2022-11-10T11:22:30.026Z,14.80
2022-11-10T11:25:44.055Z,14.90
2022-11-10T11:29:01.768Z,15.00
2022-11-10T11:32:25.658Z,15.10
2022-11-10T11:35:26.437Z,15.20
2022-11-10T11:38:49.237Z,15.20
2022-11-10T11:42:18.522Z,15.30
2022-11-10T11:45:20.814Z,15.30
2022-11-10T11:48:22.060Z,15.50
2022-11-10T11:51:30.009Z,15.50
2022-11-10T11:54:39.574Z,15.60
2022-11-10T11:58:25.035Z,15.70
2022-11-10T12:01:37.150Z,15.80
2022-11-10T12:04:51.957Z,15.90
2022-11-10T12:08:00.111Z,15.90
2022-11-10T12:11:15.385Z,16.00
2022-11-10T12:14:07.823Z,16.20
2022-11-10T12:17:37.492Z,16.30
2022-11-10T12:20:35.797Z,16.50
2022-11-10T12:23:59.620Z,16.70
2022-11-10T12:27:26.774Z,16.80
2022-11-10T12:30:15.342Z,16.90
2022-11-10T12:33:44.430Z,17.10
2022-11-10T12:36:34.727Z,17.40
2022-11-10T12:39:29.281Z,17.90
2022-11-10T12:42:22.284Z,18.60
2022-11-10T12:48:22.854Z,22.10
2022-11-10T12:51:38.953Z,23.50
2022-11-10T12:54:30.770Z,24.20
2022-11-10T12:57:25.675Z,25.80
2022-11-10T13:00:42.286Z,26.70
2022-11-10T13:03:57.066Z,27.60
2022-11-10T13:07:10.241Z,28.00
2022-11-10T13:10:26.394Z,28.00
2022-11-10T13:13:15.631Z,27.50
2022-11-10T13:16:03.641Z,26.40
2022-11-10T13:18:53.970Z,24.50
2022-11-10T13:22:11.679Z,23.30
2022-11-10T13:25:46.549Z,22.40
2022-11-10T13:28:50.607Z,22.00
2022-11-10T13:31:49.259Z,22.40
2022-11-10T13:34:51.883Z,21.70
2022-11-10T13:37:45.757Z,21.30
2022-11-10T13:40:40.320Z,20.90
2022-11-10T13:43:31.683Z,21.30
2022-11-10T13:46:18.788Z,21.20
2022-11-10T13:49:38.219Z,21.00
2022-11-10T13:53:14.528Z,20.90
2022-11-10T13:56:35.871Z,20.50
2022-11-10T13:59:29.788Z,20.30
2022-11-10T14:02:49.841Z,19.90
2022-11-10T14:05:43.255Z,19.60
2022-11-10T14:11:51.531Z,19.30
2022-11-10T14:15:10.136Z,19.20
2022-11-10T14:18:01.758Z,19.30
2022-11-10T14:21:11.976Z,19.30
2022-11-10T14:24:40.939Z,19.10
2022-11-10T14:27:38.660Z,18.80
2022-11-10T14:30:34.782Z,18.40
2022-11-10T14:33:23.994Z,18.10
2022-11-10T14:36:25.880Z,17.80
2022-11-10T14:39:17.838Z,17.50
2022-11-10T14:42:13.263Z,17.30
2022-11-10T14:45:27.654Z,17.10
2022-11-10T14:48:23.702Z,17.00
2022-11-10T14:51:20.532Z,17.00
2022-11-10T14:54:25.951Z,16.90
2022-11-10T14:57:19.066Z,16.80
2022-11-10T15:00:19.566Z,16.60
2022-11-10T15:03:17.895Z,16.60
2022-11-10T15:06:12.192Z,16.50
2022-11-10T15:09:14.454Z,16.50
2022-11-10T15:12:16.376Z,16.40
2022-11-10T15:15:15.793Z,16.30
2022-11-10T15:18:03.162Z,16.20
2022-11-10T15:21:09.018Z,16.10
2022-11-10T15:24:01.362Z,16.10
2022-11-10T15:26:50.968Z,15.90
2022-11-10T15:29:39.630Z,15.80
2022-11-10T15:32:49.139Z,15.80
2022-11-10T15:35:41.548Z,15.70
2022-11-10T15:38:33.857Z,15.60
2022-11-10T15:41:41.117Z,15.60
2022-11-10T15:44:32.602Z,15.40
2022-11-10T15:47:23.248Z,15.30
2022-11-10T15:50:13.740Z,15.30
2022-11-10T15:53:03.340Z,15.20
2022-11-10T15:55:52.965Z,15.20
2022-11-10T15:58:55.432Z,15.20
2022-11-10T16:01:48.664Z,15.20
2022-11-10T16:04:34.618Z,15.10
2022-11-10T16:07:28.210Z,15.10
2022-11-10T16:10:15.665Z,15.10
2022-11-10T16:13:07.832Z,15.10
2022-11-10T16:15:58.826Z,15.00
2022-11-10T16:18:47.639Z,15.00
2022-11-10T16:21:37.682Z,15.10
2022-11-10T16:24:27.990Z,15.10
2022-11-10T16:27:22.364Z,15.10
2022-11-10T16:30:18.527Z,15.10
2022-11-10T16:33:05.773Z,15.10
2022-11-10T16:35:57.802Z,14.90
2022-11-10T16:38:48.293Z,14.80
2022-11-10T16:41:37.022Z,14.80
2022-11-10T16:44:27.017Z,14.60
2022-11-10T16:47:22.251Z,14.70
2022-11-10T16:50:49.401Z,14.60
2022-11-10T16:56:44.096Z,14.50
2022-11-10T16:59:36.600Z,14.40
2022-11-10T17:02:42.015Z,14.40
2022-11-10T17:05:35.239Z,14.40
2022-11-10T17:08:34.634Z,14.30
2022-11-10T17:11:27.190Z,14.20
2022-11-10T17:14:17.185Z,14.20
2022-11-10T17:17:08.671Z,14.10
2022-11-10T17:19:58.048Z,14.10
2022-11-10T17:22:47.247Z,14.00
2022-11-10T17:25:38.625Z,13.90
2022-11-10T17:28:29.634Z,14.00
2022-11-10T17:31:18.180Z,13.90
2022-11-10T17:34:07.145Z,14.00
2022-11-10T17:36:56.326Z,13.90
2022-11-10T17:39:46.442Z,13.90
2022-11-10T17:42:36.306Z,13.80
2022-11-10T17:45:29.183Z,13.80
2022-11-10T17:48:18.176Z,13.70
2022-11-10T17:51:12.855Z,13.70
2022-11-10T17:54:08.745Z,13.70
2022-11-10T17:56:59.651Z,13.70
2022-11-10T17:59:51.108Z,13.80
2022-11-10T18:02:45.432Z,13.70
2022-11-10T18:05:34.159Z,13.60
2022-11-10T18:08:25.917Z,13.50
2022-11-10T18:11:20.723Z,13.40
2022-11-10T18:14:13.082Z,13.40
2022-11-10T18:17:04.240Z,13.30
2022-11-10T18:19:54.860Z,13.30
2022-11-10T18:22:46.264Z,13.20
2022-11-10T18:25:39.258Z,13.30
2022-11-10T18:28:28.736Z,13.30
2022-11-10T18:31:21.340Z,13.40
2022-11-10T18:34:12.423Z,13.30
2022-11-10T18:37:05.303Z,13.30
2022-11-10T18:39:57.702Z,13.40
2022-11-10T18:42:46.853Z,13.40
2022-11-10T18:45:34.957Z,13.30
2022-11-10T18:48:33.391Z,13.20
2022-11-10T18:51:24.333Z,13.30
2022-11-10T18:54:16.247Z,13.30
2022-11-10T18:57:05.679Z,13.20
2022-11-10T18:59:55.059Z,13.00
2022-11-10T19:02:44.815Z,13.00
2022-11-10T19:05:37.902Z,13.00
2022-11-10T19:08:31.123Z,13.00
2022-11-10T19:11:25.970Z,13.00
2022-11-10T19:14:15.843Z,13.00
2022-11-10T19:17:11.269Z,13.00
2022-11-10T19:20:06.045Z,13.00
2022-11-10T19:22:54.504Z,13.00
2022-11-10T19:25:43.562Z,13.10
2022-11-10T19:28:34.917Z,13.10
2022-11-10T19:31:28.094Z,13.10
2022-11-10T19:34:22.501Z,13.00
2022-11-10T19:37:17.037Z,13.10
2022-11-10T19:40:09.620Z,13.10
2022-11-10T19:43:01.279Z,13.10
2022-11-10T19:45:49.652Z,13.10
2022-11-10T19:48:44.258Z,13.10
2022-11-10T19:51:35.912Z,13.20
2022-11-10T19:54:28.775Z,13.20
2022-11-10T19:57:24.344Z,13.20
2022-11-10T20:00:20.890Z,13.20
2022-11-10T20:03:11.697Z,13.20
2022-11-10T20:06:23.303Z,13.20
2022-11-10T20:09:14.644Z,13.20
2022-11-10T20:12:04.759Z,13.20
2022-11-10T20:14:53.265Z,13.20
2022-11-10T20:17:44.053Z,13.30
2022-11-10T20:23:37.226Z,13.00
2022-11-10T20:26:26.638Z,13.20
2022-11-10T20:29:17.901Z,13.10
2022-11-10T20:32:05.220Z,13.10
2022-11-10T20:34:55.707Z,13.20
2022-11-10T20:37:43.527Z,13.20
2022-11-10T20:40:44.033Z,13.20
2022-11-10T20:43:38.582Z,13.20
2022-11-10T20:46:52.735Z,13.30
2022-11-10T20:49:38.333Z,13.30
2022-11-10T20:52:36.508Z,13.30
2022-11-10T20:55:52.192Z,13.30
2022-11-10T20:58:38.614Z,13.30
2022-11-10T21:01:27.086Z,13.30
2022-11-10T21:04:17.258Z,13.30
2022-11-10T21:07:04.524Z,13.20
2022-11-10T21:09:52.222Z,13.20
2022-11-10T21:12:52.546Z,13.20
2022-11-10T21:15:46.035Z,13.20
2022-11-10T21:18:35.862Z,13.30
2022-11-10T21:21:47.647Z,13.30
2022-11-10T21:24:38.997Z,13.30
2022-11-10T21:27:27.145Z,13.30
2022-11-10T21:30:25.239Z,13.30
2022-11-10T21:33:19.704Z,13.30
2022-11-10T21:36:13.668Z,13.20
2022-11-10T21:39:03.922Z,13.30
2022-11-10T21:41:59.452Z,13.20
2022-11-10T21:44:53.424Z,13.20
2022-11-10T21:47:43.552Z,13.20
2022-11-10T21:50:33.251Z,13.10
2022-11-10T21:53:22.344Z,13.10
2022-11-10T21:56:12.177Z,13.00
2022-11-10T21:58:59.256Z,13.00
2022-11-10T22:01:49.428Z,13.10
2022-11-10T22:04:38.814Z,13.00
2022-11-10T22:07:30.900Z,13.00
2022-11-10T22:10:39.495Z,12.90
2022-11-10T22:13:48.954Z,13.00
2022-11-10T22:17:11.466Z,13.00
2022-11-10T22:20:01.338Z,12.90
2022-11-10T22:22:49.351Z,12.80
2022-11-10T22:25:39.059Z,12.80
2022-11-10T22:28:27.075Z,12.80
2022-11-10T22:31:14.456Z,12.80
2022-11-10T22:34:05.189Z,12.80
2022-11-10T22:37:09.186Z,12.70
2022-11-10T22:40:15.904Z,12.80
2022-11-10T22:43:26.202Z,12.80
2022-11-10T22:46:12.245Z,12.80
2022-11-10T22:49:01.923Z,12.80
2022-11-10T22:51:57.722Z,12.70
2022-11-10T22:54:47.993Z,12.70
2022-11-10T22:57:40.983Z,12.70
2022-11-10T23:00:34.141Z,12.70
2022-11-10T23:03:27.836Z,12.70
2022-11-10T23:06:21.803Z,12.70
2022-11-10T23:09:10.010Z,12.60
2022-11-10T23:12:01.911Z,12.60
2022-11-10T23:14:50.416Z,12.70
2022-11-10T23:17:39.834Z,12.70
2022-11-10T23:20:28.756Z,12.70
2022-11-10T23:23:17.631Z,12.70
2022-11-10T23:26:10.747Z,12.70
2022-11-10T23:29:00.827Z,12.70
2022-11-10T23:31:48.415Z,12.70
2022-11-10T23:34:38.524Z,12.70
2022-11-10T23:37:30.735Z,12.60
2022-11-10T23:40:18.749Z,12.60
2022-11-10T23:43:10.848Z,12.60
2022-11-10T23:46:09.287Z,12.60
2022-11-10T23:49:00.498Z,12.60
2022-11-10T23:51:51.984Z,12.50
2022-11-10T23:54:41.527Z,12.50
2022-11-10T23:57:31.680Z,12.50
